createdAt,value
2016-04-27T00:00:20.357Z,1008.78
2016-04-27T00:01:20.343Z,1008.81
2016-04-27T00:02:20.330Z,1008.84
2016-04-27T00:03:20.318Z,1008.79
2016-04-27T00:04:20.290Z,1008.85
2016-04-27T00:05:20.276Z,1008.83
2016-04-27T00:06:20.263Z,1008.83
2016-04-27T00:07:20.234Z,1008.87
2016-04-27T00:08:20.222Z,1008.85
2016-04-27T00:09:20.209Z,1008.86
2016-04-27T00:10:20.195Z,1008.83
2016-04-27T00:11:20.183Z,1008.83
2016-04-27T00:12:20.154Z,1008.83
2016-04-27T00:13:20.142Z,1008.84
2016-04-27T00:14:20.128Z,1008.88
2016-04-27T00:15:20.115Z,1008.87
2016-04-27T00:16:20.086Z,1008.86
2016-04-27T00:17:20.074Z,1008.82
2016-04-27T00:18:20.061Z,1008.81
2016-04-27T00:19:20.047Z,1008.83
2016-04-27T00:20:20.036Z,1008.84
2016-04-27T00:21:20.006Z,1008.83
2016-04-27T00:22:19.994Z,1008.88
2016-04-27T00:23:19.981Z,1008.86
2016-04-27T00:24:19.968Z,1008.87
2016-04-27T00:25:19.939Z,1008.86
2016-04-27T00:26:19.926Z,1008.81
2016-04-27T00:27:19.913Z,1008.81
2016-04-27T00:28:19.900Z,1008.77
2016-04-27T00:29:19.872Z,1008.76
2016-04-27T00:30:19.859Z,1008.72
2016-04-27T00:31:19.830Z,1008.7
2016-04-27T00:32:19.833Z,1008.72
2016-04-27T00:33:19.805Z,1008.71
2016-04-27T00:34:19.791Z,1008.72
2016-04-27T00:35:19.779Z,1008.73
2016-04-27T00:36:20.265Z,1008.76
2016-04-27T00:37:19.737Z,1008.82
2016-04-27T00:38:19.724Z,1008.78
2016-04-27T00:39:19.726Z,1008.79
2016-04-27T00:40:19.972Z,1008.78
2016-04-27T00:41:19.676Z,1008.79
2016-04-27T00:42:19.650Z,1008.77
2016-04-27T00:43:19.658Z,1008.74
2016-04-27T00:44:19.627Z,1008.78
2016-04-27T00:45:19.606Z,1008.78
2016-04-27T00:46:19.577Z,1008.81
2016-04-27T00:47:19.564Z,1008.74
2016-04-27T00:48:19.551Z,1008.72
2016-04-27T00:49:25.007Z,1008.69
2016-04-27T00:50:19.510Z,1008.69
2016-04-27T00:51:19.497Z,1008.63
2016-04-27T00:52:19.484Z,1008.63
2016-04-27T00:53:19.470Z,1008.62
2016-04-27T00:54:19.457Z,1008.65
2016-04-27T00:55:19.429Z,1008.61
2016-04-27T00:56:19.417Z,1008.67
2016-04-27T00:57:19.403Z,1008.68
2016-04-27T00:58:19.390Z,1008.66
2016-04-27T00:59:19.362Z,1008.64
2016-04-27T01:00:19.349Z,1008.64
2016-04-27T01:01:19.336Z,1008.62
2016-04-27T01:02:19.323Z,1008.59
2016-04-27T01:03:19.294Z,1008.59
2016-04-27T01:04:19.282Z,1008.56
2016-04-27T01:05:19.268Z,1008.57
2016-04-27T01:06:19.397Z,1008.55
2016-04-27T01:07:19.227Z,1008.53
2016-04-27T01:08:19.213Z,1008.5
2016-04-27T01:09:19.202Z,1008.46
2016-04-27T01:10:19.173Z,1008.44
2016-04-27T01:11:19.159Z,1008.44
2016-04-27T01:12:19.146Z,1008.49
2016-04-27T01:13:19.134Z,1008.45
2016-04-27T01:14:19.121Z,1008.46
2016-04-27T01:15:19.107Z,1008.49
2016-04-27T01:16:19.079Z,1008.47
2016-04-27T01:17:19.067Z,1008.46
2016-04-27T01:18:19.069Z,1008.42
2016-04-27T01:19:19.040Z,1008.4
2016-04-27T01:20:19.012Z,1008.41
2016-04-27T01:21:18.998Z,1008.37
2016-04-27T01:22:18.976Z,1008.34
2016-04-27T01:23:21.683Z,1008.39
2016-04-27T01:24:18.952Z,1008.37
2016-04-27T01:25:18.939Z,1008.35
2016-04-27T01:26:18.927Z,1008.35
2016-04-27T01:27:18.897Z,1008.38
2016-04-27T01:28:18.885Z,1008.37
2016-04-27T01:29:18.856Z,1008.34
2016-04-27T01:30:18.844Z,1008.31
2016-04-27T01:31:18.830Z,1008.32
2016-04-27T01:32:18.818Z,1008.29
2016-04-27T01:33:18.789Z,1008.33
2016-04-27T01:34:18.792Z,1008.36
2016-04-27T01:35:18.763Z,1008.38
2016-04-27T01:36:18.750Z,1008.37
2016-04-27T01:37:18.738Z,1008.36
2016-04-27T01:38:18.724Z,1008.29
2016-04-27T01:39:18.712Z,1008.25
2016-04-27T01:40:18.682Z,1008.25
2016-04-27T01:41:18.670Z,1008.2
2016-04-27T01:42:18.641Z,1008.17
2016-04-27T01:43:18.628Z,1008.15
2016-04-27T01:44:18.615Z,1008.22
2016-04-27T01:45:18.603Z,1008.16
2016-04-27T01:46:18.574Z,1008.18
2016-04-27T01:47:18.561Z,1008.15
2016-04-27T01:48:18.548Z,1008.16
2016-04-27T01:49:18.535Z,1008.18
2016-04-27T01:50:18.524Z,1008.2
2016-04-27T01:51:18.495Z,1008.19
2016-04-27T01:52:18.482Z,1008.21
2016-04-27T01:53:18.469Z,1008.22
2016-04-27T01:54:18.456Z,1008.18
2016-04-27T01:55:18.426Z,1008.18
2016-04-27T01:56:18.415Z,1008.15
2016-04-27T01:57:18.401Z,1008.12
2016-04-27T01:58:18.373Z,1008.13
2016-04-27T01:59:18.375Z,1008.1
2016-04-27T02:00:18.347Z,1008.07
2016-04-27T02:01:18.334Z,1008.06
2016-04-27T02:02:18.321Z,1008.01
2016-04-27T02:03:18.292Z,1007.98
2016-04-27T02:04:18.280Z,1007.98
2016-04-27T02:05:18.267Z,1007.98
2016-04-27T02:06:18.551Z,1007.95
2016-04-27T02:07:18.225Z,1007.96
2016-04-27T02:08:18.212Z,1007.92
2016-04-27T02:09:18.200Z,1007.9
2016-04-27T02:10:18.187Z,1007.9
2016-04-27T02:11:18.158Z,1007.89
2016-04-27T02:12:18.144Z,1007.92
2016-04-27T02:13:18.132Z,1007.94
2016-04-27T02:14:18.103Z,1007.96
2016-04-27T02:15:18.090Z,1008.01
2016-04-27T02:16:18.077Z,1008.18
2016-04-27T02:17:18.065Z,1008.17
2016-04-27T02:18:18.052Z,1008.18
2016-04-27T02:19:18.038Z,1008.23
2016-04-27T02:20:18.010Z,1008.24
2016-04-27T02:21:17.997Z,1008.24
2016-04-27T02:22:17.985Z,1008.23
2016-04-27T02:23:17.971Z,1008.17
2016-04-27T02:24:17.943Z,1008.13
2016-04-27T02:25:17.930Z,1008.17
2016-04-27T02:26:17.902Z,1008.17
2016-04-27T02:27:17.903Z,1008.16
2016-04-27T02:28:17.875Z,1008.08
2016-04-27T02:29:17.863Z,1008.08
2016-04-27T02:30:17.850Z,1008.05
2016-04-27T02:31:17.836Z,1008.02
2016-04-27T02:32:17.808Z,1007.95
2016-04-27T02:33:17.795Z,1007.98
2016-04-27T02:34:17.782Z,1007.96
2016-04-27T02:35:17.753Z,1007.95
2016-04-27T02:36:20.992Z,1007.95
2016-04-27T02:37:17.727Z,1007.95
2016-04-27T02:38:17.715Z,1007.96
2016-04-27T02:39:17.702Z,1007.95
2016-04-27T02:40:17.673Z,1007.97
2016-04-27T02:41:17.661Z,1008.02
2016-04-27T02:42:17.655Z,1008.03
2016-04-27T02:43:17.684Z,1007.95
2016-04-27T02:44:17.712Z,1007.94
2016-04-27T02:45:17.727Z,1007.95
2016-04-27T02:46:17.755Z,1007.96
2016-04-27T02:47:17.763Z,1007.91
2016-04-27T02:48:17.766Z,1007.9
2016-04-27T02:49:17.769Z,1007.92
2016-04-27T02:50:17.772Z,1007.93
2016-04-27T02:51:17.773Z,1007.96
2016-04-27T02:52:17.774Z,1007.96
2016-04-27T02:53:17.751Z,1008
2016-04-27T02:54:17.743Z,1008.02
2016-04-27T02:55:17.736Z,1008.09
2016-04-27T02:56:17.712Z,1008.1
2016-04-27T02:57:17.704Z,1008.16
2016-04-27T02:58:18.146Z,1008.13
2016-04-27T02:59:17.683Z,1008.1
2016-04-27T03:00:17.652Z,1008.12
2016-04-27T03:01:17.640Z,1008.09
2016-04-27T03:02:17.629Z,1008.05
2016-04-27T03:03:17.618Z,1008.03
2016-04-27T03:04:17.590Z,1008.05
2016-04-27T03:05:17.578Z,1008.08
2016-04-27T03:06:17.565Z,1008.03
2016-04-27T03:07:17.554Z,1008.04
2016-04-27T03:08:17.526Z,1008.03
2016-04-27T03:09:17.513Z,1008.03
2016-04-27T03:10:17.501Z,1008.01
2016-04-27T03:11:17.488Z,1007.97
2016-04-27T03:12:17.459Z,1007.93
2016-04-27T03:13:17.510Z,1007.9
2016-04-27T03:14:17.435Z,1007.88
2016-04-27T03:15:17.422Z,1007.89
2016-04-27T03:16:17.408Z,1007.9
2016-04-27T03:17:17.380Z,1007.82
2016-04-27T03:18:17.383Z,1007.86
2016-04-27T03:19:17.353Z,1007.88
2016-04-27T03:20:17.325Z,1007.94
2016-04-27T03:21:17.328Z,1007.89
2016-04-27T03:22:17.300Z,1007.93
2016-04-27T03:23:17.286Z,1007.95
2016-04-27T03:24:17.274Z,1007.92
2016-04-27T03:25:17.245Z,1007.92
2016-04-27T03:26:17.233Z,1007.91
2016-04-27T03:27:17.204Z,1007.9
2016-04-27T03:28:17.190Z,1007.91
2016-04-27T03:29:17.178Z,1007.9
2016-04-27T03:30:17.165Z,1007.89
2016-04-27T03:31:17.152Z,1007.88
2016-04-27T03:32:17.139Z,1007.87
2016-04-27T03:33:17.110Z,1007.83
2016-04-27T03:34:17.098Z,1007.88
2016-04-27T03:35:17.085Z,1007.94
2016-04-27T03:36:17.071Z,1007.93
2016-04-27T03:37:17.512Z,1007.94
2016-04-27T03:38:17.030Z,1007.94
2016-04-27T03:39:17.017Z,1007.92
2016-04-27T03:40:16.989Z,1007.89
2016-04-27T03:41:16.976Z,1007.83
2016-04-27T03:42:16.962Z,1007.85
2016-04-27T03:43:16.950Z,1007.81
2016-04-27T03:44:16.921Z,1007.78
2016-04-27T03:45:16.908Z,1007.67
2016-04-27T03:46:16.895Z,1007.63
2016-04-27T03:47:16.883Z,1007.58
2016-04-27T03:48:16.854Z,1007.64
2016-04-27T03:49:16.841Z,1007.61
2016-04-27T03:50:16.828Z,1007.6
2016-04-27T03:51:17.361Z,1007.63
2016-04-27T03:52:16.897Z,1007.71
2016-04-27T03:53:16.774Z,1007.67
2016-04-27T03:54:16.761Z,1007.7
2016-04-27T03:55:16.748Z,1007.68
2016-04-27T03:56:16.719Z,1007.68
2016-04-27T03:57:16.706Z,1007.65
2016-04-27T03:58:16.693Z,1007.66
2016-04-27T03:59:16.696Z,1007.6
2016-04-27T04:00:16.668Z,1007.61
2016-04-27T04:01:16.638Z,1007.65
2016-04-27T04:02:16.626Z,1007.63
2016-04-27T04:03:16.613Z,1007.64
2016-04-27T04:04:16.585Z,1007.66
2016-04-27T04:05:16.572Z,1007.64
2016-04-27T04:06:16.575Z,1007.66
2016-04-27T04:07:16.546Z,1007.66
2016-04-27T04:08:16.518Z,1007.63
2016-04-27T04:09:16.505Z,1007.69
2016-04-27T04:10:16.477Z,1007.73
2016-04-27T04:11:16.463Z,1007.72
2016-04-27T04:12:16.452Z,1007.75
2016-04-27T04:13:16.438Z,1007.78
2016-04-27T04:14:16.424Z,1007.79
2016-04-27T04:15:16.412Z,1007.81
2016-04-27T04:16:16.383Z,1007.82
2016-04-27T04:17:16.370Z,1007.8
2016-04-27T04:18:16.343Z,1007.74
2016-04-27T04:19:16.329Z,1007.71
2016-04-27T04:20:16.316Z,1007.73
2016-04-27T04:21:16.304Z,1007.69
2016-04-27T04:22:16.278Z,1007.71
2016-04-27T04:23:16.266Z,1007.69
2016-04-27T04:24:16.252Z,1007.66
2016-04-27T04:25:16.239Z,1007.68
2016-04-27T04:26:16.210Z,1007.69
2016-04-27T04:27:16.199Z,1007.73
2016-04-27T04:28:16.185Z,1007.73
2016-04-27T04:29:16.157Z,1007.76
2016-04-27T04:30:16.144Z,1007.75
2016-04-27T04:31:16.131Z,1007.82
2016-04-27T04:32:16.102Z,1007.85
2016-04-27T04:33:16.090Z,1007.91
2016-04-27T04:34:16.076Z,1007.83
2016-04-27T04:35:16.063Z,1007.85
2016-04-27T04:36:16.050Z,1007.85
2016-04-27T04:37:16.021Z,1007.85
2016-04-27T04:38:16.009Z,1007.87
2016-04-27T04:39:15.981Z,1007.9
2016-04-27T04:40:15.967Z,1007.86
2016-04-27T04:41:15.954Z,1007.92
2016-04-27T04:42:15.942Z,1007.86
2016-04-27T04:43:15.928Z,1007.87
2016-04-27T04:44:15.901Z,1007.92
2016-04-27T04:45:15.887Z,1007.88
2016-04-27T04:46:15.875Z,1007.87
2016-04-27T04:47:15.861Z,1007.92
2016-04-27T04:48:15.833Z,1007.89
2016-04-27T04:49:15.820Z,1007.86
2016-04-27T04:50:15.806Z,1007.84
2016-04-27T04:51:15.794Z,1007.84
2016-04-27T04:52:15.781Z,1007.81
2016-04-27T04:53:15.752Z,1007.78
2016-04-27T04:54:15.740Z,1007.75
2016-04-27T04:55:15.727Z,1007.72
2016-04-27T04:56:15.713Z,1007.72
2016-04-27T04:57:15.685Z,1007.69
2016-04-27T04:58:15.672Z,1007.7
2016-04-27T04:59:15.643Z,1007.68
2016-04-27T05:00:15.630Z,1007.67
2016-04-27T05:01:15.619Z,1007.66
2016-04-27T05:02:15.761Z,1007.64
2016-04-27T05:03:15.577Z,1007.58
2016-04-27T05:04:15.563Z,1007.59
2016-04-27T05:05:15.551Z,1007.65
2016-04-27T05:06:15.538Z,1007.63
2016-04-27T05:07:15.509Z,1007.7
2016-04-27T05:08:15.496Z,1007.68
2016-04-27T05:09:15.467Z,1007.7
2016-04-27T05:10:15.454Z,1007.74
2016-04-27T05:11:15.457Z,1007.71
2016-04-27T05:12:15.429Z,1007.72
2016-04-27T05:13:15.401Z,1007.74
2016-04-27T05:14:15.387Z,1007.72
2016-04-27T05:15:15.374Z,1007.77
2016-04-27T05:16:15.642Z,1007.73
2016-04-27T05:17:15.333Z,1007.73
2016-04-27T05:18:15.335Z,1007.69
2016-04-27T05:19:15.306Z,1007.7
2016-04-27T05:20:15.294Z,1007.71
2016-04-27T05:21:15.265Z,1007.7
2016-04-27T05:22:15.253Z,1007.66
2016-04-27T05:23:15.239Z,1007.67
2016-04-27T05:24:15.211Z,1007.65
2016-04-27T05:25:15.213Z,1007.68
2016-04-27T05:26:15.185Z,1007.66
2016-04-27T05:27:15.156Z,1007.61
2016-04-27T05:28:15.143Z,1007.57
2016-04-27T05:29:15.131Z,1007.56
2016-04-27T05:30:15.102Z,1007.51
2016-04-27T05:31:15.089Z,1007.49
2016-04-27T05:32:15.077Z,1007.46
2016-04-27T05:33:15.063Z,1007.44
2016-04-27T05:34:15.050Z,1007.46
2016-04-27T05:35:15.037Z,1007.47
2016-04-27T05:36:15.009Z,1007.54
2016-04-27T05:37:14.996Z,1007.51
2016-04-27T05:38:14.968Z,1007.52
2016-04-27T05:39:14.954Z,1007.5
2016-04-27T05:40:14.941Z,1007.53
2016-04-27T05:41:14.929Z,1007.54
2016-04-27T05:42:14.900Z,1007.52
2016-04-27T05:43:14.887Z,1007.51
2016-04-27T05:44:14.873Z,1007.49
2016-04-27T05:45:14.861Z,1007.47
2016-04-27T05:46:14.832Z,1007.44
2016-04-27T05:47:14.820Z,1007.44
2016-04-27T05:48:14.807Z,1007.43
2016-04-27T05:49:14.778Z,1007.42
2016-04-27T05:50:14.765Z,1007.45
2016-04-27T05:51:14.752Z,1007.45
2016-04-27T05:52:14.895Z,1007.44
2016-04-27T05:53:14.726Z,1007.42
2016-04-27T05:54:14.698Z,1007.39
2016-04-27T05:55:14.685Z,1007.45
2016-04-27T05:56:14.672Z,1007.47
2016-04-27T05:57:14.644Z,1007.47
2016-04-27T05:58:14.631Z,1007.44
2016-04-27T05:59:14.617Z,1007.47
2016-04-27T06:00:14.605Z,1007.45
2016-04-27T06:01:14.576Z,1007.44
2016-04-27T06:02:14.563Z,1007.47
2016-04-27T06:03:14.550Z,1007.45
2016-04-27T06:04:14.538Z,1007.45
2016-04-27T06:05:14.524Z,1007.46
2016-04-27T06:06:14.496Z,1007.44
2016-04-27T06:07:14.482Z,1007.54
2016-04-27T06:08:14.454Z,1007.57
2016-04-27T06:09:14.441Z,1007.5
2016-04-27T06:10:14.428Z,1007.49
2016-04-27T06:11:14.400Z,1007.48
2016-04-27T06:12:14.402Z,1007.55
2016-04-27T06:13:14.374Z,1007.65
2016-04-27T06:14:14.362Z,1007.67
2016-04-27T06:15:14.348Z,1007.69
2016-04-27T06:16:14.320Z,1007.68
2016-04-27T06:17:14.306Z,1007.69
2016-04-27T06:18:14.278Z,1007.7
2016-04-27T06:19:14.265Z,1007.71
2016-04-27T06:20:14.252Z,1007.72
2016-04-27T06:21:14.240Z,1007.66
2016-04-27T06:22:14.211Z,1007.68
2016-04-27T06:23:14.198Z,1007.68
2016-04-27T06:24:14.185Z,1007.74
2016-04-27T06:25:14.172Z,1007.74
2016-04-27T06:26:14.144Z,1007.81
2016-04-27T06:27:14.130Z,1007.78
2016-04-27T06:28:14.117Z,1007.8
2016-04-27T06:29:14.089Z,1007.8
2016-04-27T06:30:14.091Z,1007.75
2016-04-27T06:31:14.063Z,1007.77
2016-04-27T06:32:14.050Z,1007.73
2016-04-27T06:33:14.037Z,1007.74
2016-04-27T06:34:14.008Z,1007.69
2016-04-27T06:35:13.996Z,1007.72
2016-04-27T06:36:13.982Z,1007.66
2016-04-27T06:37:13.954Z,1007.69
2016-04-27T06:38:13.940Z,1007.69
2016-04-27T06:39:13.929Z,1007.72
2016-04-27T06:40:13.915Z,1007.76
2016-04-27T06:41:13.902Z,1007.71
2016-04-27T06:42:13.874Z,1007.72
2016-04-27T06:43:13.860Z,1007.77
2016-04-27T06:44:13.848Z,1007.78
2016-04-27T06:45:13.835Z,1007.83
2016-04-27T06:46:13.822Z,1007.78
2016-04-27T06:47:13.793Z,1007.77
2016-04-27T06:48:13.781Z,1007.81
2016-04-27T06:49:13.768Z,1007.82
2016-04-27T06:50:13.740Z,1007.85
2016-04-27T06:51:13.726Z,1007.81
2016-04-27T06:52:13.697Z,1007.79
2016-04-27T06:53:13.701Z,1007.81
2016-04-27T06:54:13.672Z,1007.75
2016-04-27T06:55:13.659Z,1007.73
2016-04-27T06:56:14.895Z,1007.68
2016-04-27T06:57:13.617Z,1007.68
2016-04-27T06:58:13.605Z,1007.65
2016-04-27T06:59:13.592Z,1007.65
2016-04-27T07:00:13.578Z,1007.7
2016-04-27T07:01:13.550Z,1007.72
2016-04-27T07:02:13.537Z,1007.71
2016-04-27T07:03:13.524Z,1007.69
2016-04-27T07:04:13.496Z,1007.63
2016-04-27T07:05:13.498Z,1007.67
2016-04-27T07:06:13.469Z,1007.7
2016-04-27T07:07:14.019Z,1007.67
2016-04-27T07:08:13.428Z,1007.71
2016-04-27T07:09:13.416Z,1007.74
2016-04-27T07:10:13.402Z,1007.74
2016-04-27T07:11:13.390Z,1007.77
2016-04-27T07:12:13.361Z,1007.82
2016-04-27T07:13:13.348Z,1007.82
2016-04-27T07:14:13.335Z,1007.85
2016-04-27T07:15:13.321Z,1007.83
2016-04-27T07:16:13.293Z,1007.81
2016-04-27T07:17:13.296Z,1007.82
2016-04-27T07:18:13.268Z,1007.89
2016-04-27T07:19:13.240Z,1007.9
2016-04-27T07:20:13.226Z,1007.89
2016-04-27T07:21:13.213Z,1007.83
2016-04-27T07:22:13.247Z,1007.81
2016-04-27T07:23:13.187Z,1007.87
2016-04-27T07:24:13.158Z,1007.86
2016-04-27T07:25:13.146Z,1007.88
2016-04-27T07:26:13.133Z,1007.89
2016-04-27T07:27:13.119Z,1007.9
2016-04-27T07:28:13.092Z,1007.97
2016-04-27T07:29:13.078Z,1007.96
2016-04-27T07:30:13.065Z,1008.04
2016-04-27T07:31:13.037Z,1008.06
2016-04-27T07:32:13.024Z,1008.12
2016-04-27T07:33:13.011Z,1008.11
2016-04-27T07:34:12.998Z,1008.19
2016-04-27T07:35:12.985Z,1008.17
2016-04-27T07:36:12.957Z,1008.18
2016-04-27T07:37:12.944Z,1008.21
2016-04-27T07:38:12.930Z,1008.18
2016-04-27T07:39:12.902Z,1008.14
2016-04-27T07:40:12.905Z,1008.12
2016-04-27T07:41:12.876Z,1008.03
2016-04-27T07:42:12.863Z,1008.03
2016-04-27T07:43:12.851Z,1007.97
2016-04-27T07:44:12.822Z,1007.93
2016-04-27T07:45:12.809Z,1007.92
2016-04-27T07:46:12.795Z,1007.92
2016-04-27T07:47:12.799Z,1007.94
2016-04-27T07:48:12.755Z,1007.97
2016-04-27T07:49:12.742Z,1008.01
2016-04-27T07:50:12.729Z,1007.99
2016-04-27T07:51:12.715Z,1008.05
2016-04-27T07:52:12.687Z,1008.04
2016-04-27T07:53:12.674Z,1008.02
2016-04-27T07:54:12.661Z,1008.03
2016-04-27T07:55:12.633Z,1008.02
2016-04-27T07:56:12.636Z,1008
2016-04-27T07:57:12.622Z,1008.01
2016-04-27T07:58:12.594Z,1008
2016-04-27T07:59:12.580Z,1008
2016-04-27T08:00:12.552Z,1007.97
2016-04-27T08:01:12.539Z,1007.97
2016-04-27T08:02:12.527Z,1007.98
2016-04-27T08:03:12.498Z,1007.96
2016-04-27T08:04:12.500Z,1007.95
2016-04-27T08:05:12.472Z,1008.03
2016-04-27T08:06:12.458Z,1007.98
2016-04-27T08:07:13.181Z,1007.98
2016-04-27T08:08:12.433Z,1008.02
2016-04-27T08:09:12.421Z,1008.01
2016-04-27T08:10:12.391Z,1008.04
2016-04-27T08:11:12.379Z,1008.03
2016-04-27T08:12:12.350Z,1008.02
2016-04-27T08:13:12.368Z,1008.01
2016-04-27T08:14:12.324Z,1008.02
2016-04-27T08:15:12.296Z,1008.02
2016-04-27T08:16:12.299Z,1007.97
2016-04-27T08:17:12.270Z,1008.06
2016-04-27T08:18:12.257Z,1008.03
2016-04-27T08:19:12.243Z,1007.96
2016-04-27T08:20:12.326Z,1007.94
2016-04-27T08:21:12.203Z,1007.95
2016-04-27T08:22:12.190Z,1007.94
2016-04-27T08:23:12.193Z,1007.96
2016-04-27T08:24:12.164Z,1007.88
2016-04-27T08:25:12.135Z,1007.92
2016-04-27T08:26:12.122Z,1007.93
2016-04-27T08:27:12.109Z,1007.97
2016-04-27T08:28:12.096Z,1007.96
2016-04-27T08:29:12.068Z,1007.94
2016-04-27T08:30:12.055Z,1007.94
2016-04-27T08:31:12.058Z,1007.93
2016-04-27T08:32:12.029Z,1007.96
2016-04-27T08:33:12.013Z,1007.95
2016-04-27T08:34:12.001Z,1008.02
2016-04-27T08:35:11.972Z,1008.05
2016-04-27T08:36:12.115Z,1008.12
2016-04-27T08:37:11.962Z,1008.14
2016-04-27T08:38:11.949Z,1008.1
2016-04-27T08:39:11.905Z,1008.11
2016-04-27T08:40:12.047Z,1008.12
2016-04-27T08:41:11.879Z,1008.11
2016-04-27T08:42:11.866Z,1008.05
2016-04-27T08:43:11.852Z,1008.09
2016-04-27T08:44:11.824Z,1008.08
2016-04-27T08:45:11.810Z,1008.08
2016-04-27T08:46:11.799Z,1008.09
2016-04-27T08:47:11.785Z,1008.1
2016-04-27T08:48:11.756Z,1008.14
2016-04-27T08:49:11.760Z,1008.15
2016-04-27T08:50:11.746Z,1008.11
2016-04-27T08:51:11.718Z,1008.12
2016-04-27T08:52:11.940Z,1008.14
2016-04-27T08:53:11.676Z,1008.19
2016-04-27T08:54:11.679Z,1008.2
2016-04-27T08:55:11.650Z,1008.26
2016-04-27T08:56:11.638Z,1008.31
2016-04-27T08:57:11.625Z,1008.26
2016-04-27T08:58:11.595Z,1008.3
2016-04-27T08:59:11.599Z,1008.35
2016-04-27T09:00:11.586Z,1008.45
2016-04-27T09:01:11.558Z,1008.41
2016-04-27T09:02:11.544Z,1008.44
2016-04-27T09:03:11.531Z,1008.45
2016-04-27T09:04:11.503Z,1008.39
2016-04-27T09:05:11.506Z,1008.41
2016-04-27T09:06:11.492Z,1008.4
2016-04-27T09:07:11.464Z,1008.4
2016-04-27T09:08:11.452Z,1008.36
2016-04-27T09:09:11.438Z,1008.34
2016-04-27T09:10:11.457Z,1008.31
2016-04-27T09:11:11.413Z,1008.26
2016-04-27T09:12:11.384Z,1008.24
2016-04-27T09:13:11.371Z,1008.25
2016-04-27T09:14:11.357Z,1008.18
2016-04-27T09:15:11.345Z,1008.17
2016-04-27T09:16:11.332Z,1008.16
2016-04-27T09:17:11.304Z,1008.16
2016-04-27T09:18:11.291Z,1008.13
2016-04-27T09:19:11.277Z,1008.11
2016-04-27T09:20:11.265Z,1008.08
2016-04-27T09:21:11.252Z,1008.07
2016-04-27T09:22:11.504Z,1008.07
2016-04-27T09:23:12.007Z,1008.14
2016-04-27T09:24:11.198Z,1008.13
2016-04-27T09:25:11.184Z,1008.14
2016-04-27T09:26:11.171Z,1008.14
2016-04-27T09:27:11.314Z,1008.15
2016-04-27T09:28:11.131Z,1008.15
2016-04-27T09:29:11.133Z,1008.17
2016-04-27T09:30:11.104Z,1008.22
2016-04-27T09:31:11.091Z,1008.22
2016-04-27T09:32:11.078Z,1008.21
2016-04-27T09:33:11.065Z,1008.22
2016-04-27T09:34:11.053Z,1008.23
2016-04-27T09:35:11.180Z,1008.18
2016-04-27T09:36:11.027Z,1008.16
2016-04-27T09:37:11.561Z,1008.17
2016-04-27T09:38:10.985Z,1008.16
2016-04-27T09:39:10.972Z,1008.12
2016-04-27T09:40:10.958Z,1008.11
2016-04-27T09:41:10.947Z,1008.11
2016-04-27T09:42:10.933Z,1008.13
2016-04-27T09:43:10.905Z,1008.09
2016-04-27T09:44:10.908Z,1008.12
2016-04-27T09:45:10.879Z,1008.06
2016-04-27T09:46:10.866Z,1008.08
2016-04-27T09:47:10.853Z,1008.09
2016-04-27T09:48:10.824Z,1008.12
2016-04-27T09:49:10.983Z,1008.16
2016-04-27T09:50:10.815Z,1008.23
2016-04-27T09:51:10.786Z,1008.25
2016-04-27T09:52:10.804Z,1008.31
2016-04-27T09:53:10.791Z,1008.29
2016-04-27T09:54:10.747Z,1008.29
2016-04-27T09:55:10.734Z,1008.3
2016-04-27T09:56:10.736Z,1008.31
2016-04-27T09:57:10.755Z,1008.35
2016-04-27T09:58:10.695Z,1008.33
2016-04-27T09:59:10.714Z,1008.36
2016-04-27T10:00:10.654Z,1008.3
2016-04-27T10:01:10.640Z,1008.32
2016-04-27T10:02:10.643Z,1008.35
2016-04-27T10:03:13.646Z,1008.35
2016-04-27T10:04:10.742Z,1008.39
2016-04-27T10:05:10.589Z,1008.4
2016-04-27T10:06:10.561Z,1008.43
2016-04-27T10:07:10.548Z,1008.5
2016-04-27T10:08:10.706Z,1008.49
2016-04-27T10:09:10.521Z,1008.46
2016-04-27T10:10:10.509Z,1008.52
2016-04-27T10:11:10.496Z,1008.53
2016-04-27T10:12:10.466Z,1008.51
2016-04-27T10:13:10.470Z,1008.47
2016-04-27T10:14:10.441Z,1008.47
2016-04-27T10:15:10.428Z,1008.48
2016-04-27T10:16:10.415Z,1008.53
2016-04-27T10:17:10.544Z,1008.57
2016-04-27T10:18:10.390Z,1008.57
2016-04-27T10:19:10.361Z,1008.56
2016-04-27T10:20:10.364Z,1008.6
2016-04-27T10:21:10.366Z,1008.59
2016-04-27T10:22:10.326Z,1008.55
2016-04-27T10:23:10.311Z,1008.54
2016-04-27T10:24:10.454Z,1008.57
2016-04-27T10:25:10.300Z,1008.6
2016-04-27T10:26:10.273Z,1008.61
2016-04-27T10:27:10.244Z,1008.55
2016-04-27T10:28:10.403Z,1008.56
2016-04-27T10:29:10.391Z,1008.5
2016-04-27T10:30:10.206Z,1008.53
2016-04-27T10:31:10.209Z,1008.42
2016-04-27T10:32:10.351Z,1008.45
2016-04-27T10:33:10.167Z,1008.31
2016-04-27T10:34:10.154Z,1008.32
2016-04-27T10:35:10.157Z,1008.36
2016-04-27T10:36:10.128Z,1008.38
2016-04-27T10:37:10.256Z,1008.41
2016-04-27T10:38:10.103Z,1008.4
2016-04-27T10:39:10.089Z,1008.42
2016-04-27T10:40:10.061Z,1008.35
2016-04-27T10:41:10.094Z,1008.36
2016-04-27T10:42:10.067Z,1008.3
2016-04-27T10:43:10.038Z,1008.27
2016-04-27T10:44:10.681Z,1008.28
2016-04-27T10:45:10.652Z,1008.25
2016-04-27T10:46:11.702Z,1008.24
2016-04-27T10:47:09.971Z,1008.22
2016-04-27T10:48:09.958Z,1008.23
2016-04-27T10:49:09.944Z,1008.23
2016-04-27T10:50:09.932Z,1008.3
2016-04-27T10:51:09.935Z,1008.28
2016-04-27T10:52:09.905Z,1008.28
2016-04-27T10:53:09.893Z,1008.25
2016-04-27T10:54:09.880Z,1008.26
2016-04-27T10:55:09.868Z,1008.23
2016-04-27T10:56:09.870Z,1008.23
2016-04-27T10:57:09.840Z,1008.16
2016-04-27T10:58:09.829Z,1008.21
2016-04-27T10:59:09.815Z,1008.25
2016-04-27T11:00:09.791Z,1008.26
2016-04-27T11:01:09.793Z,1008.29
2016-04-27T11:02:09.780Z,1008.32
2016-04-27T11:03:09.767Z,1008.44
2016-04-27T11:04:09.755Z,1008.59
2016-04-27T11:05:09.742Z,1008.71
2016-04-27T11:06:09.729Z,1008.52
2016-04-27T11:07:09.731Z,1008.41
2016-04-27T11:08:09.719Z,1008.63
2016-04-27T11:09:09.752Z,1008.74
2016-04-27T11:10:09.693Z,1008.64
2016-04-27T11:11:09.680Z,1008.46
2016-04-27T11:12:09.682Z,1008.47
2016-04-27T11:13:09.669Z,1008.43
2016-04-27T11:14:09.829Z,1008.47
2016-04-27T11:15:09.971Z,1008.43
2016-04-27T11:16:11.006Z,1008.56
2016-04-27T11:17:10.133Z,1008.5
2016-04-27T11:18:09.637Z,1008.58
2016-04-27T11:19:09.639Z,1008.61
2016-04-27T11:20:09.923Z,1008.52
2016-04-27T11:21:09.925Z,1008.55
2016-04-27T11:22:09.615Z,1008.39
2016-04-27T11:23:12.306Z,1008.43
2016-04-27T11:24:10.136Z,1008.54
2016-04-27T11:25:10.217Z,1008.49
2016-04-27T11:26:09.908Z,1008.58
2016-04-27T11:27:10.253Z,1008.55
2016-04-27T11:28:09.600Z,1008.42
2016-04-27T11:29:09.587Z,1008.49
2016-04-27T11:30:09.590Z,1008.63
2016-04-27T11:31:09.578Z,1008.61
2016-04-27T11:32:09.580Z,1008.66
2016-04-27T11:33:09.567Z,1008.66
2016-04-27T11:34:09.569Z,1008.7
2016-04-27T11:35:09.572Z,1008.65
2016-04-27T11:36:09.560Z,1008.68
2016-04-27T11:37:09.563Z,1008.64
2016-04-27T11:38:09.566Z,1008.6
2016-04-27T11:39:09.552Z,1008.62
2016-04-27T11:40:09.570Z,1008.62
2016-04-27T11:41:09.557Z,1008.64
2016-04-27T11:42:09.544Z,1008.65
2016-04-27T11:43:09.547Z,1008.61
2016-04-27T11:44:09.549Z,1008.64
2016-04-27T11:45:09.552Z,1008.63
2016-04-27T11:46:09.539Z,1008.58
2016-04-27T11:47:09.542Z,1008.62
2016-04-27T11:48:09.529Z,1008.54
2016-04-27T11:49:09.575Z,1008.62
2016-04-27T11:50:09.607Z,1008.57
2016-04-27T11:51:09.654Z,1008.47
2016-04-27T11:52:09.702Z,1008.43
2016-04-27T11:53:09.749Z,1008.42
2016-04-27T11:54:09.764Z,1008.46
2016-04-27T11:55:09.783Z,1008.4
2016-04-27T11:56:09.802Z,1008.52
2016-04-27T11:57:09.805Z,1008.52
2016-04-27T11:58:09.839Z,1008.5
2016-04-27T11:59:09.836Z,1008.53
2016-04-27T12:00:09.829Z,1008.56
2016-04-27T12:01:09.853Z,1008.53
2016-04-27T12:02:09.845Z,1008.48
2016-04-27T12:03:09.854Z,1008.47
2016-04-27T12:04:09.861Z,1008.48
2016-04-27T12:05:09.851Z,1008.45
2016-04-27T12:06:09.856Z,1008.42
2016-04-27T12:07:09.860Z,1008.36